Time;durP1;ratioP1;P1;durP2;ratioP2;P2;SDS_P1;SDS_P2;PMS_P1;PMS_P2;Temp;Humidity;BMP_temperature;BMP_pressure;BME280_temperature;BME280_humidity;BME280_pressure;Samples;Min_cycle;Max_cycle;Signal;HPM_P1;HPM_P2
2022/06/05 00:00:26;;;;;;;9.60;8.70;;;;;;;14.73;69.39;100256.01;213526;1274;140049;-65
2022/06/05 00:06:01;;;;;;;10.80;9.80;;;;;;;14.74;69.35;100253.55;214141;1274;139882;-65
2022/06/05 00:11:03;;;;;;;13.10;8.70;;;;;;;14.76;69.49;100261.52;214224;1276;140645;-64
2022/06/05 00:16:06;;;;;;;10.90;9.80;;;;;;;14.81;69.56;100266.10;213148;1276;139793;-63
2022/06/05 00:21:10;;;;;;;10.60;9.70;;;;;;;14.87;69.81;100271.02;214759;1276;232407;-63
2022/06/05 00:26:22;;;;;;;11.20;9.50;;;;;;;14.92;69.68;100279.50;214895;1274;140427;-63
2022/06/05 00:31:43;;;;;;;10.60;9.70;;;;;;;14.96;69.62;100290.14;213241;1275;140356;-63
2022/06/05 00:37:15;;;;;;;11.60;9.90;;;;;;;14.99;69.37;100292.56;214600;1274;140683;-64
2022/06/05 00:42:22;;;;;;;11.70;10.50;;;;;;;15.00;69.63;100289.51;215552;1274;140224;-63
2022/06/05 00:47:32;;;;;;;13.80;11.00;;;;;;;14.99;69.54;100302.17;215220;1274;141007;-63
2022/06/05 00:52:38;;;;;;;11.70;10.50;;;;;;;14.98;69.45;100289.23;215919;1274;140979;-64
2022/06/05 00:57:42;;;;;;;15.20;9.70;;;;;;;14.99;69.75;100285.54;215496;1274;140419;-64
2022/06/05 01:02:49;;;;;;;10.40;9.50;;;;;;;15.04;69.72;100293.38;216076;1274;140756;-63
2022/06/05 01:07:53;;;;;;;11.90;9.90;;;;;;;15.00;69.61;100288.77;214585;1274;140757;-64
2022/06/05 01:13:10;;;;;;;9.80;8.90;;;;;;;14.99;69.71;100285.21;214685;1274;141166;-62
2022/06/05 01:19:00;;;;;;;11.00;8.30;;;;;;;15.01;69.66;100279.86;215041;1274;140583;-63
2022/06/05 01:24:33;;;;;;;9.70;8.80;;;;;;;15.02;69.81;100282.67;214228;1274;142364;-63
2022/06/05 01:30:02;;;;;;;9.20;8.40;;;;;;;14.99;69.68;100296.54;214811;1273;140633;-62
2022/06/05 01:35:25;;;;;;;;;;;;;;;14.88;69.50;100294.74;213757;1274;142276;-63
2022/06/05 01:40:40;;;;;;;9.90;7.20;;;;;;;14.80;69.53;100302.91;213764;1273;127238;-63
2022/06/05 01:46:06;;;;;;;8.60;7.70;;;;;;;14.79;69.67;100307.73;214202;1274;141531;-64
2022/06/05 01:51:19;;;;;;;8.10;6.80;;;;;;;14.74;69.67;100307.54;213580;1274;142242;-65
2022/06/05 01:56:32;;;;;;;8.40;7.60;;;;;;;14.69;69.72;100315.20;214179;1274;208402;-63
2022/06/05 02:01:41;;;;;;;8.90;7.30;;;;;;;14.68;69.92;100320.98;214398;1276;141319;-63
2022/06/05 02:07:03;;;;;;;9.40;7.50;;;;;;;14.69;69.79;100323.56;214503;1273;140798;-63
2022/06/05 02:12:07;;;;;;;8.10;7.30;;;;;;;14.71;69.84;100323.39;213559;1274;139875;-63
2022/06/05 02:17:12;;;;;;;10.70;6.90;;;;;;;14.71;69.90;100321.89;214365;1276;140607;-63
2022/06/05 02:22:23;;;;;;;8.50;7.40;;;;;;;14.69;69.88;100319.89;214293;1273;142426;-61
2022/06/05 02:27:27;;;;;;;7.80;7.20;;;;;;;14.65;69.72;100318.11;213798;1274;144828;-63
2022/06/05 02:32:53;;;;;;;8.80;7.90;;;;;;;14.57;69.57;100324.65;214382;1274;153922;-61
2022/06/05 02:38:18;;;;;;;7.50;6.80;;;;;;;14.46;69.46;100323.09;215967;1274;140659;-62
2022/06/05 02:43:36;;;;;;;7.30;5.50;;;;;;;14.34;69.37;100315.38;215222;1273;140680;-63
2022/06/05 02:48:45;;;;;;;7.20;6.50;;;;;;;14.24;69.24;100326.21;215808;1275;140367;-64
2022/06/05 02:53:58;;;;;;;13.00;6.80;;;;;;;14.12;69.13;100330.52;215425;1275;141045;-65
2022/06/05 02:59:02;;;;;;;7.30;6.50;;;;;;;14.00;69.28;100329.21;215918;1275;141008;-64
2022/06/05 03:04:08;;;;;;;7.40;6.70;;;;;;;13.89;69.59;100332.39;216040;1274;140395;-63
2022/06/05 03:09:12;;;;;;;9.30;6.80;;;;;;;13.80;69.13;100327.77;214681;1275;141472;-63
2022/06/05 03:14:16;;;;;;;6.10;5.50;;;;;;;13.75;69.64;100334.73;215064;1275;140212;-63
2022/06/05 03:19:19;;;;;;;7.80;6.50;;;;;;;13.78;69.78;100342.27;214902;1275;139141;-62
2022/06/05 03:24:21;;;;;;;6.30;5.80;;;;;;;13.76;69.52;100347.07;214218;1276;139776;-63
2022/06/05 03:29:24;;;;;;;7.60;6.10;;;;;;;13.86;69.60;100349.95;214263;1275;140732;-63
2022/06/05 03:34:27;;;;;;;8.40;6.60;;;;;;;13.87;69.63;100334.60;214006;1274;140254;-62
2022/06/05 03:39:33;;;;;;;7.70;6.90;;;;;;;13.84;69.71;100331.77;213506;1276;139126;-63
2022/06/05 03:44:42;;;;;;;7.30;6.10;;;;;;;14.14;69.82;100337.04;213435;1274;143169;-63
2022/06/05 03:49:45;;;;;;;10.20;6.30;;;;;;;14.38;69.80;100343.06;213801;1274;141173;-63
2022/06/05 03:54:47;;;;;;;10.50;7.50;;;;;;;14.60;69.59;100342.23;213565;1274;141775;-64
2022/06/05 03:59:50;;;;;;;9.30;6.40;;;;;;;14.79;69.42;100340.10;213612;1274;140734;-64
2022/06/05 04:04:53;;;;;;;7.10;6.60;;;;;;;14.94;69.35;100340.00;213732;1274;141299;-64
2022/06/05 04:09:56;;;;;;;9.20;6.60;;;;;;;15.02;69.30;100338.36;213442;1274;140677;-63
2022/06/05 04:15:02;;;;;;;9.80;6.70;;;;;;;15.24;69.07;100340.30;214090;1274;140738;-62
2022/06/05 04:20:06;;;;;;;9.00;7.70;;;;;;;15.78;68.65;100334.30;214378;1274;139661;-63
2022/06/05 04:25:14;;;;;;;9.90;7.10;;;;;;;16.27;68.01;100346.88;214018;1274;141143;-62
2022/06/05 04:30:16;;;;;;;8.20;6.70;;;;;;;17.13;66.89;100346.14;213957;1276;140353;-63
2022/06/05 04:35:20;;;;;;;8.80;6.90;;;;;;;17.58;65.82;100347.95;214688;1274;141549;-62
2022/06/05 04:40:22;;;;;;;7.30;6.60;;;;;;;19.76;63.29;100338.38;215675;1276;139906;-63
2022/06/05 04:45:25;;;;;;;7.90;7.20;;;;;;;21.15;61.14;100332.85;213609;1274;139962;-63
2022/06/05 04:50:28;;;;;;;7.40;6.70;;;;;;;22.26;59.19;100337.21;216038;1275;139392;-63
2022/06/05 04:55:31;;;;;;;7.90;7.10;;;;;;;22.01;57.98;100345.95;216197;1276;140301;-63
2022/06/05 05:00:35;;;;;;;7.80;7.00;;;;;;;21.93;56.82;100352.42;215500;1274;140253;-62
2022/06/05 05:05:38;;;;;;;8.80;6.70;;;;;;;22.63;55.75;100352.43;214178;1274;143109;-62
2022/06/05 05:10:42;;;;;;;6.70;6.10;;;;;;;25.44;52.97;100361.16;214428;1274;141069;-61
2022/06/05 05:15:49;;;;;;;8.80;6.90;;;;;;;28.04;49.97;100369.82;214597;1274;139894;-63
2022/06/05 05:20:53;;;;;;;6.40;5.80;;;;;;;28.96;47.62;100374.27;213964;1274;140346;-62
2022/06/05 05:26:25;;;;;;;6.10;5.40;;;;;;;31.31;44.44;100374.98;214407;1274;139895;-61
2022/06/05 05:31:31;;;;;;;4.70;4.30;;;;;;;33.36;41.42;100375.23;214988;1274;139151;-62
2022/06/05 05:36:35;;;;;;;6.20;4.40;;;;;;;34.81;38.40;100379.03;214094;1273;140168;-63
2022/06/05 05:42:05;;;;;;;4.40;4.10;;;;;;;35.88;36.07;100376.21;213970;1274;139532;-63
2022/06/05 05:47:23;;;;;;;4.50;3.80;;;;;;;36.96;34.45;100377.55;214642;1274;139692;-63
2022/06/05 05:52:27;;;;;;;3.50;3.20;;;;;;;38.39;33.22;100379.66;213388;1274;140018;-63
2022/06/05 05:57:31;;;;;;;3.80;3.50;;;;;;;39.45;31.08;100379.98;214604;1274;141002;-64
2022/06/05 06:02:33;;;;;;;3.30;3.10;;;;;;;39.78;29.88;100372.58;213456;1274;141518;-64
2022/06/05 06:07:35;;;;;;;3.50;3.20;;;;;;;40.20;28.82;100372.29;215199;1274;140167;-65
2022/06/05 06:12:39;;;;;;;3.50;3.30;;;;;;;40.59;28.15;100370.50;214009;1274;151102;-64
2022/06/05 06:17:42;;;;;;;5.20;3.40;;;;;;;41.03;27.39;100368.52;213573;1272;140708;-63
2022/06/05 06:22:46;;;;;;;4.90;3.00;;;;;;;41.13;26.43;100365.92;214021;1274;140698;-65
2022/06/05 06:27:48;;;;;;;4.50;4.00;;;;;;;41.00;26.04;100365.44;214736;1274;140000;-63
2022/06/05 06:32:51;;;;;;;3.10;2.90;;;;;;;41.09;26.02;100363.45;215758;1273;140792;-63
2022/06/05 06:37:55;;;;;;;4.10;3.60;;;;;;;41.00;25.36;100362.64;216094;1274;139168;-64
2022/06/05 06:42:58;;;;;;;4.20;3.60;;;;;;;40.66;25.57;100360.89;216185;1274;139689;-64
2022/06/05 06:48:09;;;;;;;3.30;2.20;;;;;;;40.50;25.00;100358.73;216449;1274;139596;-65
2022/06/05 06:53:14;;;;;;;2.70;2.60;;;;;;;39.83;24.39;100359.60;215273;1274;139897;-65
2022/06/05 06:58:20;;;;;;;3.90;2.70;;;;;;;39.78;24.40;100365.81;215274;1273;140461;-65
2022/06/05 07:03:23;;;;;;;3.00;2.80;;;;;;;39.88;24.64;100360.51;214372;1274;139235;-65
2022/06/05 07:08:26;;;;;;;3.30;3.00;;;;;;;40.26;24.40;100358.63;213507;1274;141840;-63
2022/06/05 07:13:29;;;;;;;3.20;2.80;;;;;;;40.24;23.96;100354.17;214576;1274;140634;-64
2022/06/05 07:18:32;;;;;;;2.90;2.60;;;;;;;39.80;23.75;100350.16;213661;1274;141303;-64
2022/06/05 07:23:35;;;;;;;3.50;2.90;;;;;;;39.25;24.19;100356.42;214081;1274;139366;-64
2022/06/05 07:28:38;;;;;;;;;;;;;;;38.31;24.45;100352.89;214509;1274;139506;-66
2022/06/05 07:33:42;;;;;;;4.60;2.80;;;;;;;37.26;25.35;100346.23;214644;1274;126024;-64
2022/06/05 07:38:46;;;;;;;3.00;2.80;;;;;;;36.52;25.93;100340.45;214230;1274;139960;-64
2022/06/05 07:43:49;;;;;;;2.40;2.30;;;;;;;35.79;26.17;100338.76;213705;1274;139344;-64
2022/06/05 07:48:52;;;;;;;3.90;3.10;;;;;;;34.97;26.85;100336.92;213334;1274;139503;-65
2022/06/05 07:59:18;;;;;;;3.70;3.40;;;;;;;33.52;28.02;100337.67;213063;1274;139337;-64
2022/06/05 08:04:32;;;;;;;3.80;3.00;;;;;;;33.05;28.80;100326.56;214401;1274;139373;-64
2022/06/05 08:09:35;;;;;;;3.20;3.00;;;;;;;32.42;28.92;100330.15;213632;1274;138967;-64
2022/06/05 08:14:41;;;;;;;4.20;3.90;;;;;;;31.73;29.43;100329.67;213267;1274;139378;-65
2022/06/05 08:19:45;;;;;;;4.60;4.30;;;;;;;31.43;30.24;100326.19;214108;1274;139597;-64
2022/06/05 08:24:49;;;;;;;4.30;3.90;;;;;;;31.31;30.76;100327.11;213061;1274;139563;-65
2022/06/05 08:29:56;;;;;;;5.30;4.90;;;;;;;31.14;31.00;100329.38;214551;1274;139168;-64
2022/06/05 08:35:02;;;;;;;7.10;3.90;;;;;;;30.89;31.29;100332.73;215900;1274;139455;-69
2022/06/05 08:45:51;;;;;;;5.20;4.10;;;;;;;30.29;31.95;100342.72;215858;1274;139906;-65
2022/06/05 08:51:04;;;;;;;4.40;3.70;;;;;;;30.05;32.02;100339.46;216033;1274;141413;-69
2022/06/05 08:56:11;;;;;;;2.90;2.70;;;;;;;29.75;31.69;100336.95;215313;1274;139844;-65
2022/06/05 09:01:32;;;;;;;5.00;3.10;;;;;;;29.44;31.48;100334.30;214355;1274;139879;-65
2022/06/05 09:06:39;;;;;;;3.50;3.20;;;;;;;29.19;31.52;100335.72;214036;1274;139415;-64
2022/06/05 09:11:57;;;;;;;3.40;3.10;;;;;;;29.02;31.72;100340.13;214533;1274;140085;-64
2022/06/05 09:17:08;;;;;;;2.70;2.60;;;;;;;28.92;31.79;100341.13;213957;1274;139467;-64
2022/06/05 09:22:29;;;;;;;3.10;2.90;;;;;;;28.73;31.82;100339.46;213933;1274;140230;-64
2022/06/05 09:28:05;;;;;;;3.40;3.10;;;;;;;28.57;31.94;100338.69;214253;1274;139961;-65
2022/06/05 09:33:30;;;;;;;2.80;2.60;;;;;;;28.42;32.10;100340.30;214809;1274;141017;-66
2022/06/05 09:38:43;;;;;;;4.80;2.90;;;;;;;28.30;31.79;100343.95;213694;1274;139737;-67
2022/06/05 09:44:18;;;;;;;5.30;3.00;;;;;;;28.26;32.79;100344.13;214050;1274;140827;-64
2022/06/05 09:49:47;;;;;;;3.20;2.90;;;;;;;28.34;32.63;100337.92;213218;1274;140660;-64
2022/06/05 09:55:01;;;;;;;3.20;3.00;;;;;;;28.19;32.72;100328.44;212704;1275;140427;-64
2022/06/05 10:00:26;;;;;;;5.50;3.00;;;;;;;28.01;32.74;100327.64;213311;1274;142891;-65
2022/06/05 10:05:34;;;;;;;4.90;3.90;;;;;;;27.93;33.26;100325.45;213773;1274;141179;-64
2022/06/05 10:10:40;;;;;;;4.50;3.40;;;;;;;27.76;33.26;100319.20;214349;1273;141702;-64
2022/06/05 10:16:14;;;;;;;4.20;3.90;;;;;;;27.77;34.01;100308.95;213746;1274;141401;-63
2022/06/05 10:21:21;;;;;;;4.60;3.90;;;;;;;27.93;34.19;100299.83;213298;1274;142538;-65
2022/06/05 10:26:37;;;;;;;3.90;3.60;;;;;;;27.89;34.17;100298.60;214955;1274;141966;-65
2022/06/05 10:32:06;;;;;;;4.00;3.70;;;;;;;27.96;34.21;100301.55;216023;1274;141774;-64
2022/06/05 10:37:21;;;;;;;5.00;4.60;;;;;;;27.93;34.10;100294.13;215943;1274;142041;-64
2022/06/05 10:42:26;;;;;;;3.50;3.30;;;;;;;27.85;34.05;100293.84;216093;1276;141158;-64
2022/06/05 10:47:42;;;;;;;3.60;3.30;;;;;;;27.70;34.30;100287.61;215411;1274;139614;-63
2022/06/05 10:53:17;;;;;;;3.50;3.20;;;;;;;27.80;34.67;100283.35;216075;1274;141467;-65
2022/06/05 10:58:38;;;;;;;4.00;3.70;;;;;;;27.77;34.20;100284.98;213362;1274;140939;-64
2022/06/05 11:04:14;;;;;;;3.20;3.00;;;;;;;27.74;34.04;100284.77;214568;1274;231451;-64
2022/06/05 11:09:42;;;;;;;4.10;3.80;;;;;;;27.52;34.04;100285.29;213853;1274;140150;-64
2022/06/05 11:15:06;;;;;;;6.40;3.30;;;;;;;27.52;34.65;100282.30;213222;1274;141150;-64
2022/06/05 11:20:23;;;;;;;3.40;3.20;;;;;;;27.39;34.16;100276.66;214554;1274;140105;-64
2022/06/05 11:25:36;;;;;;;4.00;3.40;;;;;;;27.41;33.80;100269.94;213493;1274;140061;-63
2022/06/05 11:30:47;;;;;;;3.30;3.00;;;;;;;27.48;33.35;100263.83;214370;1274;139961;-66
2022/06/05 11:36:18;;;;;;;3.80;2.40;;;;;;;27.42;32.88;100257.14;213195;1276;142123;-63
2022/06/05 11:41:48;;;;;;;2.60;2.50;;;;;;;27.21;32.25;100252.65;213450;1274;139837;-63
2022/06/05 11:46:56;;;;;;;3.50;3.10;;;;;;;27.19;32.40;100244.67;213757;1274;139711;-63
2022/06/05 11:52:19;;;;;;;3.10;2.70;;;;;;;27.15;32.62;100242.73;214113;1272;139346;-63
2022/06/05 11:57:33;;;;;;;3.10;2.90;;;;;;;27.22;32.66;100239.09;213188;1274;140057;-63
2022/06/05 12:02:54;;;;;;;2.40;2.20;;;;;;;27.28;32.76;100238.05;214265;1274;139292;-64
2022/06/05 12:08:19;;;;;;;3.10;2.70;;;;;;;27.28;32.36;100240.47;213151;1274;141537;-62
2022/06/05 12:13:31;;;;;;;3.00;2.30;;;;;;;27.16;31.86;100230.52;213253;1274;141129;-64
2022/06/05 12:18:53;;;;;;;2.00;1.90;;;;;;;26.92;31.48;100224.81;213482;1274;140020;-63
2022/06/05 12:24:17;;;;;;;2.50;2.30;;;;;;;26.78;31.62;100218.07;215204;1274;139890;-64
2022/06/05 12:30:00;;;;;;;4.20;3.00;;;;;;;26.82;31.60;100209.39;214716;1274;162124;-64
2022/06/05 12:35:20;;;;;;;2.10;2.00;;;;;;;26.74;31.50;100209.31;215641;1274;139873;-64
2022/06/05 12:40:31;;;;;;;3.20;2.50;;;;;;;26.62;31.81;100212.59;215257;1274;140026;-64
2022/06/05 12:45:38;;;;;;;2.50;2.30;;;;;;;26.66;31.28;100203.11;215573;1275;141154;-64
2022/06/05 12:51:13;;;;;;;2.20;2.10;;;;;;;26.71;30.93;100191.52;215580;1274;140096;-64
2022/06/05 12:56:25;;;;;;;2.60;2.10;;;;;;;26.73;30.49;100191.61;214714;1275;140725;-64
2022/06/05 13:01:48;;;;;;;2.20;2.10;;;;;;;26.75;30.69;100197.40;215486;1276;143494;-64
2022/06/05 13:07:04;;;;;;;2.20;1.50;;;;;;;26.78;29.95;100196.27;213952;1276;140175;-64
2022/06/05 13:12:27;;;;;;;1.80;1.70;;;;;;;26.73;29.79;100189.82;214616;1274;140812;-64
2022/06/05 13:17:40;;;;;;;1.20;1.10;;;;;;;26.74;29.36;100188.90;214182;1274;141969;-63
2022/06/05 13:23:20;;;;;;;1.80;1.70;;;;;;;26.64;29.05;100188.84;212961;1275;141452;-64
2022/06/05 13:28:33;;;;;;;2.30;1.80;;;;;;;26.53;29.49;100185.76;213246;1274;140053;-64
2022/06/05 13:33:45;;;;;;;2.20;1.50;;;;;;;26.47;29.11;100179.90;213292;1274;139780;-63
2022/06/05 13:39:05;;;;;;;1.90;1.70;;;;;;;26.43;28.94;100175.67;213888;1276;141916;-63
2022/06/05 13:44:19;;;;;;;1.60;1.50;;;;;;;26.48;28.61;100161.27;213197;1274;142492;-64
2022/06/05 13:49:51;;;;;;;3.00;1.60;;;;;;;26.56;28.59;100156.66;214257;1274;142522;-63
2022/06/05 13:55:18;;;;;;;1.00;0.90;;;;;;;26.41;28.89;100149.02;212945;1274;140796;-66
2022/06/05 14:00:28;;;;;;;5.70;1.30;;;;;;;26.35;28.54;100145.35;214148;1274;140449;-63
2022/06/05 14:05:55;;;;;;;1.80;1.50;;;;;;;26.38;28.54;100145.69;215472;1274;140960;-63
2022/06/05 14:11:01;;;;;;;1.30;1.30;;;;;;;26.42;28.60;100145.70;214355;1274;140601;-66
2022/06/05 14:16:05;;;;;;;1.20;1.20;;;;;;;26.40;28.67;100135.43;214458;1274;141629;-63
2022/06/05 14:21:31;;;;;;;2.30;1.60;;;;;;;26.31;28.63;100123.54;213434;1274;141249;-61
2022/06/05 14:27:01;;;;;;;1.20;1.20;;;;;;;26.21;28.64;100118.70;214661;1273;141486;-63
2022/06/05 14:32:28;;;;;;;1.10;1.00;;;;;;;26.17;28.60;100112.73;214734;1274;141105;-64
2022/06/05 14:37:39;;;;;;;1.60;1.50;;;;;;;26.01;28.53;100106.95;216258;1272;139718;-64
2022/06/05 14:43:01;;;;;;;1.60;1.50;;;;;;;25.93;28.94;100105.14;215332;1274;142556;-63
2022/06/05 14:48:28;;;;;;;5.20;1.80;;;;;;;25.85;29.33;100101.24;216015;1275;140760;-64
2022/06/05 14:53:47;;;;;;;1.90;1.30;;;;;;;25.85;29.47;100093.57;215903;1274;140901;-63
2022/06/05 14:59:10;;;;;;;1.60;1.50;;;;;;;25.74;29.26;100094.54;214855;1274;140891;-64
2022/06/05 15:04:40;;;;;;;2.00;1.60;;;;;;;25.64;29.15;100086.86;213485;1274;139185;-64
2022/06/05 15:09:49;;;;;;;1.60;1.50;;;;;;;25.57;29.46;100084.67;214889;1273;139511;-66
2022/06/05 15:15:08;;;;;;;1.20;1.20;;;;;;;25.50;29.73;100089.29;215429;1274;139743;-64
2022/06/05 15:20:35;;;;;;;1.10;1.00;;;;;;;25.48;29.77;100086.95;214145;1271;140145;-63
2022/06/05 15:25:50;;;;;;;2.10;1.90;;;;;;;25.38;29.56;100079.50;214584;1272;140908;-65
2022/06/05 15:31:07;;;;;;;2.70;1.30;;;;;;;25.31;29.47;100072.65;214157;1274;139236;-63
2022/06/05 15:36:21;;;;;;;1.50;1.40;;;;;;;25.20;28.72;100073.66;213968;1276;139598;-64
2022/06/05 15:41:47;;;;;;;2.90;0.90;;;;;;;25.13;29.04;100075.13;213348;1275;141707;-65
2022/06/05 15:47:13;;;;;;;1.50;1.40;;;;;;;25.04;28.98;100069.62;213100;1274;152640;-64
2022/06/05 15:52:33;;;;;;;1.10;1.00;;;;;;;24.93;28.36;100067.45;213395;1274;141393;-63
2022/06/05 15:58:28;;;;;;;0.80;0.80;;;;;;;24.79;28.62;100060.84;213246;1274;139269;-63
2022/06/05 16:03:58;;;;;;;4.70;1.60;;;;;;;24.70;28.80;100065.98;213959;1274;139820;-64
2022/06/05 16:09:02;;;;;;;0.90;0.80;;;;;;;24.63;29.12;100053.48;214774;1274;139619;-63
2022/06/05 16:14:19;;;;;;;1.00;1.00;;;;;;;24.54;29.17;100049.19;215559;1276;150000;-63
2022/06/05 16:19:47;;;;;;;6.40;1.30;;;;;;;24.45;29.60;100041.13;214905;1274;141436;-63
2022/06/05 16:24:54;;;;;;;1.40;1.30;;;;;;;24.39;30.19;100034.16;215968;1274;141800;-63
2022/06/05 16:29:57;;;;;;;1.30;1.20;;;;;;;24.34;30.36;100032.70;213369;1274;140832;-63
2022/06/05 16:40:26;;;;;;;1.50;1.40;;;;;;;24.23;30.73;100029.45;214951;1274;141036;-63
2022/06/05 16:45:33;;;;;;;1.80;1.70;;;;;;;24.12;31.09;100023.41;215167;1275;140933;-64
2022/06/05 16:50:50;;;;;;;4.50;1.30;;;;;;;24.00;31.51;100019.41;215100;1274;139570;-63
2022/06/05 16:55:56;;;;;;;2.00;1.50;;;;;;;23.85;32.13;100020.14;215385;1274;141172;-64
2022/06/05 17:01:23;;;;;;;1.50;1.40;;;;;;;23.71;33.00;100016.09;215518;1273;141331;-64
2022/06/05 17:06:38;;;;;;;5.20;2.00;;;;;;;23.60;33.22;100011.79;215849;1274;140762;-64
2022/06/05 17:12:08;;;;;;;3.80;1.90;;;;;;;23.49;33.35;100002.67;214399;1273;140843;-64
2022/06/05 17:17:21;;;;;;;2.50;1.50;;;;;;;23.37;33.52;99994.83;213118;1274;140610;-66
2022/06/05 17:22:29;;;;;;;1.70;1.60;;;;;;;23.22;33.86;99995.39;215086;1274;139990;-63
2022/06/05 17:27:36;;;;;;;2.20;1.50;;;;;;;23.04;34.21;99994.05;214254;1273;139815;-64
2022/06/05 17:33:05;;;;;;;2.60;1.60;;;;;;;22.86;34.69;99992.94;213608;1274;206087;-64
2022/06/05 17:38:19;;;;;;;3.50;1.50;;;;;;;22.60;35.54;99986.30;213320;1274;141011;-63
2022/06/05 17:43:45;;;;;;;1.90;1.70;;;;;;;22.33;36.62;99983.30;213521;1274;152202;-63
2022/06/05 17:48:54;;;;;;;2.60;2.40;;;;;;;22.00;37.67;99983.58;213099;1274;140222;-63
2022/06/05 17:53:57;;;;;;;4.00;2.40;;;;;;;21.72;38.67;99982.03;213186;1275;162800;-64
2022/06/05 17:59:00;;;;;;;5.50;2.40;;;;;;;21.46;39.29;99983.73;214197;1274;140642;-64
2022/06/05 18:04:21;;;;;;;3.80;2.30;;;;;;;21.18;39.95;99978.66;213514;1275;141056;-63
2022/06/05 18:09:31;;;;;;;3.10;1.90;;;;;;;20.91;40.42;99974.89;213928;1273;141813;-64
2022/06/05 18:14:44;;;;;;;1.60;1.50;;;;;;;20.67;40.87;99971.02;214221;1273;140226;-62
2022/06/05 18:19:46;;;;;;;2.10;1.90;;;;;;;20.42;41.10;99974.60;213226;1275;140712;-64
2022/06/05 18:24:50;;;;;;;2.70;1.50;;;;;;;20.19;41.76;99985.14;214451;1274;140534;-64
2022/06/05 18:29:55;;;;;;;3.70;1.70;;;;;;;19.94;41.91;99988.73;216385;1273;140671;-64
2022/06/05 18:35:05;;;;;;;2.20;2.00;;;;;;;19.69;42.11;99986.01;215983;1274;141157;-64
2022/06/05 18:40:33;;;;;;;1.60;1.50;;;;;;;19.41;42.81;99987.64;216004;1273;152301;-65
2022/06/05 18:45:46;;;;;;;2.40;1.50;;;;;;;19.12;43.42;99998.09;215303;1274;141198;-64
2022/06/05 18:50:55;;;;;;;3.50;1.90;;;;;;;18.85;44.40;100005.36;214302;1274;140943;-64
2022/06/05 18:55:59;;;;;;;2.50;1.70;;;;;;;18.56;44.97;100004.80;214445;1274;140305;-64
2022/06/05 19:01:21;;;;;;;6.00;2.60;;;;;;;18.26;45.64;100007.84;214570;1275;139716;-65
2022/06/05 19:06:27;;;;;;;2.30;2.10;;;;;;;17.93;46.61;100013.71;213357;1275;139693;-63
2022/06/05 19:11:50;;;;;;;3.10;1.60;;;;;;;17.63;47.28;100015.59;213078;1275;141287;-64
2022/06/05 19:17:06;;;;;;;8.40;1.90;;;;;;;17.36;47.89;100027.11;213744;1275;139430;-64
2022/06/05 19:22:17;;;;;;;4.70;2.30;;;;;;;17.13;48.84;100040.19;213167;1275;151307;-64
2022/06/05 19:27:32;;;;;;;3.50;2.00;;;;;;;16.92;49.29;100038.69;213310;1274;140511;-64
2022/06/05 19:32:37;;;;;;;4.70;2.10;;;;;;;16.58;49.86;100036.15;213559;1274;139542;-64
2022/06/05 19:43:32;;;;;;;2.80;2.30;;;;;;;16.13;51.27;100041.56;213749;1274;140256;-64
2022/06/05 19:48:42;;;;;;;7.10;2.80;;;;;;;15.91;51.81;100049.77;214787;1274;140224;-65
2022/06/05 19:53:54;;;;;;;2.10;1.90;;;;;;;15.70;52.34;100054.16;214180;1274;140576;-64
2022/06/05 19:59:00;;;;;;;3.30;2.90;;;;;;;15.53;53.12;100057.66;213228;1274;139754;-65
2022/06/05 20:04:29;;;;;;;4.20;2.50;;;;;;;15.35;53.25;100051.50;213692;1274;141324;-63
2022/06/05 20:09:54;;;;;;;1.70;1.60;;;;;;;15.05;53.70;100045.85;215066;1274;159736;-64
2022/06/05 20:15:20;;;;;;;2.60;2.40;;;;;;;14.75;54.54;100045.42;215457;1274;139804;-64
2022/06/05 20:20:26;;;;;;;2.60;2.30;;;;;;;14.51;55.31;100052.17;215747;1274;141408;-65
2022/06/05 20:25:45;;;;;;;4.90;2.80;;;;;;;14.36;55.84;100052.59;216270;1274;140508;-63
2022/06/05 20:31:12;;;;;;;2.50;2.30;;;;;;;14.13;56.29;100046.20;215472;1274;141618;-63
2022/06/05 20:36:19;;;;;;;3.00;2.70;;;;;;;13.94;56.63;100044.52;215366;1274;140974;-62
2022/06/05 20:41:33;;;;;;;7.90;2.80;;;;;;;13.85;57.66;100046.05;215257;1274;942293;-63
2022/06/05 20:46:46;;;;;;;5.60;3.30;;;;;;;13.90;58.11;100047.27;214619;1274;142976;-63
2022/06/05 20:51:50;;;;;;;10.60;4.90;;;;;;;13.77;58.11;100048.54;215024;1274;140146;-62
2022/06/05 20:56:57;;;;;;;6.70;4.40;;;;;;;13.58;58.43;100043.61;214222;1274;140969;-63
2022/06/05 21:02:06;;;;;;;10.40;5.10;;;;;;;13.55;59.12;100042.08;214279;1273;140173;-64
2022/06/05 21:07:22;;;;;;;7.50;4.40;;;;;;;13.39;59.25;100041.85;214905;1274;140201;-64
2022/06/05 21:17:52;;;;;;;7.80;4.90;;;;;;;13.02;59.71;100048.25;213783;1276;140872;-64
2022/06/05 21:22:55;;;;;;;6.00;4.30;;;;;;;12.92;60.50;100050.34;213327;1275;142227;-63
2022/06/05 21:28:00;;;;;;;6.70;4.70;;;;;;;12.84;60.84;100046.83;214098;1274;140736;-65
2022/06/05 21:33:08;;;;;;;7.70;5.30;;;;;;;12.81;61.18;100049.46;213753;1274;139540;-63
2022/06/05 21:38:30;;;;;;;14.20;6.40;;;;;;;12.80;61.37;100043.09;213130;1276;140147;-64
2022/06/05 21:43:48;;;;;;;5.60;4.70;;;;;;;12.71;61.16;100049.03;214213;1274;140918;-65
2022/06/05 21:48:52;;;;;;;12.70;6.00;;;;;;;12.56;61.42;100054.73;213214;1276;140076;-64
2022/06/05 21:53:55;;;;;;;8.30;7.20;;;;;;;12.49;61.99;100057.73;213589;1276;139955;-64
2022/06/05 21:58:59;;;;;;;11.50;7.00;;;;;;;12.34;62.03;100062.72;214007;1276;141439;-64
2022/06/05 22:04:01;;;;;;;10.70;6.00;;;;;;;12.18;62.62;100061.18;214581;1274;140622;-65
2022/06/05 22:09:07;;;;;;;5.80;4.90;;;;;;;12.13;62.72;100062.68;213000;1274;140462;-62
2022/06/05 22:14:26;;;;;;;10.30;5.70;;;;;;;12.03;62.78;100062.11;212790;1276;141353;-63
2022/06/05 22:19:30;;;;;;;10.50;5.70;;;;;;;11.95;63.37;100056.38;216031;1274;140522;-64
2022/06/05 22:24:35;;;;;;;6.60;5.60;;;;;;;11.89;63.75;100055.52;214631;1274;139693;-63
2022/06/05 22:29:39;;;;;;;8.90;5.30;;;;;;;11.81;63.91;100067.63;216206;1274;139973;-64
2022/06/05 22:34:42;;;;;;;9.60;5.70;;;;;;;11.82;64.11;100067.23;216049;1274;139818;-65
2022/06/05 22:39:45;;;;;;;12.10;7.00;;;;;;;11.91;64.48;100069.55;215640;1274;141545;-62
2022/06/05 22:44:48;;;;;;;8.30;6.60;;;;;;;11.98;64.55;100065.74;214471;1274;140537;-64
2022/06/05 22:49:53;;;;;;;9.40;5.70;;;;;;;12.03;64.56;100051.89;214485;1276;140281;-64
2022/06/05 22:54:56;;;;;;;10.20;5.60;;;;;;;11.79;64.13;100050.38;213149;1274;140167;-64
2022/06/05 23:00:12;;;;;;;11.70;6.10;;;;;;;11.60;64.65;100038.77;214672;1274;141508;-63
2022/06/05 23:05:17;;;;;;;6.70;4.90;;;;;;;11.56;64.88;100023.54;213438;1274;140366;-63
2022/06/05 23:10:20;;;;;;;10.70;6.50;;;;;;;11.58;65.22;100015.94;214521;1274;140395;-64
2022/06/05 23:15:24;;;;;;;11.30;5.90;;;;;;;11.59;65.39;100010.74;213688;1274;141365;-63
2022/06/05 23:20:27;;;;;;;9.60;5.50;;;;;;;11.60;65.34;100012.09;213388;1274;140499;-63
2022/06/05 23:25:31;;;;;;;7.10;5.10;;;;;;;11.58;65.72;99995.73;213419;1275;140006;-62
2022/06/05 23:30:35;;;;;;;8.10;5.30;;;;;;;11.61;65.85;99979.67;213088;1277;141425;-62
2022/06/05 23:35:38;;;;;;;9.30;6.70;;;;;;;11.46;65.73;99973.35;213929;1276;142025;-64
2022/06/05 23:40:41;;;;;;;10.90;5.40;;;;;;;11.45;66.21;99962.65;213455;1276;139254;-63
2022/06/05 23:45:45;;;;;;;6.90;5.70;;;;;;;11.39;66.20;99962.56;214114;1274;140386;-63
2022/06/05 23:50:59;;;;;;;6.70;5.10;;;;;;;11.35;66.51;99970.27;214324;1276;140441;-62
2022/06/05 23:56:07;;;;;;;10.80;5.30;;;;;;;11.40;66.83;99974.27;214542;1277;141481;-64
